sensor_id;sensor_type;location;lat;lon;timestamp;P1;durP1;ratioP1;P2;durP2;ratioP2
57856;SDS011;43683;48.650;9.290;2023-08-24T00:01:25;11.80;;;7.30;;
57856;SDS011;43683;48.650;9.290;2023-08-24T00:03:50;9.63;;;7.50;;
57856;SDS011;43683;48.650;9.290;2023-08-24T00:06:16;10.38;;;7.10;;
57856;SDS011;43683;48.650;9.290;2023-08-24T00:08:42;16.20;;;8.45;;
57856;SDS011;43683;48.650;9.290;2023-08-24T00:11:08;13.45;;;7.97;;
57856;SDS011;43683;48.650;9.290;2023-08-24T00:13:39;13.00;;;8.20;;
57856;SDS011;43683;48.650;9.290;2023-08-24T00:16:20;11.63;;;7.97;;
57856;SDS011;43683;48.650;9.290;2023-08-24T00:18:46;11.35;;;8.02;;
57856;SDS011;43683;48.650;9.290;2023-08-24T00:21:15;11.48;;;8.57;;
57856;SDS011;43683;48.650;9.290;2023-08-24T00:23:47;10.63;;;7.72;;
57856;SDS011;43683;48.650;9.290;2023-08-24T00:26:13;12.20;;;8.13;;
57856;SDS011;43683;48.650;9.290;2023-08-24T00:28:41;11.48;;;7.93;;
57856;SDS011;43683;48.650;9.290;2023-08-24T00:31:07;11.80;;;8.15;;
57856;SDS011;43683;48.650;9.290;2023-08-24T00:33:33;11.80;;;8.13;;
57856;SDS011;43683;48.650;9.290;2023-08-24T00:35:59;10.85;;;8.13;;
57856;SDS011;43683;48.650;9.290;2023-08-24T00:38:27;9.98;;;7.85;;
57856;SDS011;43683;48.650;9.290;2023-08-24T00:40:53;13.10;;;7.75;;
57856;SDS011;43683;48.650;9.290;2023-08-24T00:43:20;11.20;;;7.40;;
57856;SDS011;43683;48.650;9.290;2023-08-24T00:45:49;11.82;;;7.82;;
57856;SDS011;43683;48.650;9.290;2023-08-24T00:50:42;10.88;;;7.60;;
57856;SDS011;43683;48.650;9.290;2023-08-24T00:53:07;11.43;;;8.18;;
57856;SDS011;43683;48.650;9.290;2023-08-24T00:55:33;12.65;;;7.82;;
57856;SDS011;43683;48.650;9.290;2023-08-24T00:57:58;9.88;;;7.60;;
57856;SDS011;43683;48.650;9.290;2023-08-24T01:00:24;13.75;;;7.82;;
57856;SDS011;43683;48.650;9.290;2023-08-24T01:02:50;11.45;;;8.23;;
57856;SDS011;43683;48.650;9.290;2023-08-24T01:05:15;11.30;;;8.77;;
57856;SDS011;43683;48.650;9.290;2023-08-24T01:07:41;12.35;;;8.73;;
57856;SDS011;43683;48.650;9.290;2023-08-24T01:10:07;13.05;;;9.02;;
57856;SDS011;43683;48.650;9.290;2023-08-24T01:18:16;11.45;;;9.15;;
57856;SDS011;43683;48.650;9.290;2023-08-24T01:20:45;13.27;;;9.77;;
57856;SDS011;43683;48.650;9.290;2023-08-24T01:26:19;12.63;;;9.55;;
57856;SDS011;43683;48.650;9.290;2023-08-24T01:28:46;12.52;;;8.88;;
57856;SDS011;43683;48.650;9.290;2023-08-24T01:31:15;13.95;;;8.90;;
57856;SDS011;43683;48.650;9.290;2023-08-24T01:33:41;12.68;;;8.68;;
57856;SDS011;43683;48.650;9.290;2023-08-24T01:36:11;11.85;;;8.38;;
57856;SDS011;43683;48.650;9.290;2023-08-24T01:38:40;13.13;;;8.65;;
57856;SDS011;43683;48.650;9.290;2023-08-24T01:41:10;13.00;;;8.88;;
57856;SDS011;43683;48.650;9.290;2023-08-24T01:43:41;13.82;;;9.13;;
57856;SDS011;43683;48.650;9.290;2023-08-24T01:46:10;13.73;;;8.65;;
57856;SDS011;43683;48.650;9.290;2023-08-24T01:48:39;12.77;;;8.90;;
57856;SDS011;43683;48.650;9.290;2023-08-24T01:51:05;12.35;;;9.43;;
57856;SDS011;43683;48.650;9.290;2023-08-24T01:53:32;12.30;;;9.02;;
57856;SDS011;43683;48.650;9.290;2023-08-24T01:55:58;12.07;;;8.88;;
57856;SDS011;43683;48.650;9.290;2023-08-24T01:58:24;13.05;;;9.43;;
57856;SDS011;43683;48.650;9.290;2023-08-24T02:00:49;15.27;;;9.05;;
57856;SDS011;43683;48.650;9.290;2023-08-24T02:03:15;11.98;;;8.85;;
57856;SDS011;43683;48.650;9.290;2023-08-24T02:05:40;12.65;;;9.38;;
57856;SDS011;43683;48.650;9.290;2023-08-24T02:08:06;13.98;;;9.52;;
57856;SDS011;43683;48.650;9.290;2023-08-24T02:10:31;13.35;;;9.20;;
57856;SDS011;43683;48.650;9.290;2023-08-24T02:12:57;12.05;;;8.93;;
57856;SDS011;43683;48.650;9.290;2023-08-24T02:15:22;11.07;;;8.68;;
57856;SDS011;43683;48.650;9.290;2023-08-24T02:17:48;12.88;;;9.43;;
57856;SDS011;43683;48.650;9.290;2023-08-24T02:20:14;11.88;;;8.70;;
57856;SDS011;43683;48.650;9.290;2023-08-24T02:22:39;11.70;;;8.52;;
57856;SDS011;43683;48.650;9.290;2023-08-24T02:25:05;13.70;;;9.35;;
57856;SDS011;43683;48.650;9.290;2023-08-24T02:27:32;14.63;;;9.38;;
57856;SDS011;43683;48.650;9.290;2023-08-24T02:29:58;15.50;;;9.88;;
57856;SDS011;43683;48.650;9.290;2023-08-24T02:32:23;12.02;;;9.43;;
57856;SDS011;43683;48.650;9.290;2023-08-24T02:34:49;13.23;;;9.25;;
57856;SDS011;43683;48.650;9.290;2023-08-24T02:37:14;14.23;;;8.98;;
57856;SDS011;43683;48.650;9.290;2023-08-24T02:39:40;10.75;;;8.07;;
57856;SDS011;43683;48.650;9.290;2023-08-24T02:42:06;12.10;;;9.32;;
57856;SDS011;43683;48.650;9.290;2023-08-24T02:44:31;13.45;;;8.95;;
57856;SDS011;43683;48.650;9.290;2023-08-24T02:46:57;12.77;;;9.98;;
57856;SDS011;43683;48.650;9.290;2023-08-24T02:49:22;11.80;;;8.50;;
57856;SDS011;43683;48.650;9.290;2023-08-24T02:51:48;11.13;;;8.27;;
57856;SDS011;43683;48.650;9.290;2023-08-24T02:54:14;12.13;;;8.40;;
57856;SDS011;43683;48.650;9.290;2023-08-24T02:56:39;10.60;;;8.38;;
57856;SDS011;43683;48.650;9.290;2023-08-24T02:59:05;11.73;;;7.85;;
57856;SDS011;43683;48.650;9.290;2023-08-24T03:01:31;10.40;;;7.97;;
57856;SDS011;43683;48.650;9.290;2023-08-24T03:03:56;11.77;;;8.30;;
57856;SDS011;43683;48.650;9.290;2023-08-24T03:06:22;11.43;;;8.45;;
57856;SDS011;43683;48.650;9.290;2023-08-24T03:08:50;11.98;;;8.35;;
57856;SDS011;43683;48.650;9.290;2023-08-24T03:11:16;11.52;;;8.27;;
57856;SDS011;43683;48.650;9.290;2023-08-24T03:13:42;12.88;;;8.40;;
57856;SDS011;43683;48.650;9.290;2023-08-24T03:16:08;11.27;;;8.38;;
57856;SDS011;43683;48.650;9.290;2023-08-24T03:18:33;11.80;;;8.50;;
57856;SDS011;43683;48.650;9.290;2023-08-24T03:20:59;11.32;;;8.73;;
57856;SDS011;43683;48.650;9.290;2023-08-24T03:23:25;11.18;;;8.45;;
57856;SDS011;43683;48.650;9.290;2023-08-24T03:25:51;12.70;;;8.75;;
57856;SDS011;43683;48.650;9.290;2023-08-24T03:28:17;10.70;;;8.13;;
57856;SDS011;43683;48.650;9.290;2023-08-24T03:30:46;12.93;;;8.70;;
57856;SDS011;43683;48.650;9.290;2023-08-24T03:33:13;11.95;;;8.20;;
57856;SDS011;43683;48.650;9.290;2023-08-24T03:35:39;12.35;;;8.77;;
57856;SDS011;43683;48.650;9.290;2023-08-24T03:38:05;13.25;;;9.40;;
57856;SDS011;43683;48.650;9.290;2023-08-24T03:40:30;12.35;;;8.90;;
57856;SDS011;43683;48.650;9.290;2023-08-24T03:42:56;12.57;;;9.32;;
57856;SDS011;43683;48.650;9.290;2023-08-24T03:45:21;12.77;;;9.00;;
57856;SDS011;43683;48.650;9.290;2023-08-24T03:47:47;11.82;;;9.65;;
57856;SDS011;43683;48.650;9.290;2023-08-24T03:50:13;11.85;;;9.13;;
57856;SDS011;43683;48.650;9.290;2023-08-24T03:52:39;12.57;;;9.23;;
57856;SDS011;43683;48.650;9.290;2023-08-24T03:55:05;16.70;;;9.38;;
57856;SDS011;43683;48.650;9.290;2023-08-24T03:57:31;14.75;;;10.45;;
57856;SDS011;43683;48.650;9.290;2023-08-24T03:59:57;14.32;;;8.88;;
57856;SDS011;43683;48.650;9.290;2023-08-24T04:02:22;14.07;;;10.02;;
57856;SDS011;43683;48.650;9.290;2023-08-24T04:04:48;14.38;;;8.90;;
57856;SDS011;43683;48.650;9.290;2023-08-24T04:07:15;13.02;;;8.73;;
57856;SDS011;43683;48.650;9.290;2023-08-24T04:09:41;10.55;;;7.68;;
57856;SDS011;43683;48.650;9.290;2023-08-24T04:12:06;13.55;;;8.82;;
57856;SDS011;43683;48.650;9.290;2023-08-24T04:14:32;11.48;;;9.05;;
57856;SDS011;43683;48.650;9.290;2023-08-24T04:16:58;13.38;;;8.85;;
57856;SDS011;43683;48.650;9.290;2023-08-24T04:19:23;12.77;;;8.63;;
57856;SDS011;43683;48.650;9.290;2023-08-24T04:21:49;13.27;;;8.45;;
57856;SDS011;43683;48.650;9.290;2023-08-24T04:24:14;11.52;;;9.20;;
57856;SDS011;43683;48.650;9.290;2023-08-24T04:26:40;11.27;;;8.82;;
57856;SDS011;43683;48.650;9.290;2023-08-24T04:29:05;11.70;;;9.20;;
57856;SDS011;43683;48.650;9.290;2023-08-24T04:31:31;12.23;;;8.57;;
57856;SDS011;43683;48.650;9.290;2023-08-24T04:33:56;12.57;;;8.98;;
57856;SDS011;43683;48.650;9.290;2023-08-24T04:36:22;13.43;;;9.32;;
57856;SDS011;43683;48.650;9.290;2023-08-24T04:38:47;11.75;;;9.35;;
57856;SDS011;43683;48.650;9.290;2023-08-24T04:41:13;12.68;;;9.10;;
57856;SDS011;43683;48.650;9.290;2023-08-24T04:43:38;14.48;;;9.93;;
57856;SDS011;43683;48.650;9.290;2023-08-24T04:46:04;13.82;;;9.73;;
57856;SDS011;43683;48.650;9.290;2023-08-24T04:48:29;14.07;;;9.95;;
57856;SDS011;43683;48.650;9.290;2023-08-24T04:50:59;13.80;;;9.65;;
57856;SDS011;43683;48.650;9.290;2023-08-24T04:53:26;12.30;;;8.93;;
57856;SDS011;43683;48.650;9.290;2023-08-24T04:55:51;14.10;;;9.10;;
57856;SDS011;43683;48.650;9.290;2023-08-24T04:58:17;12.20;;;8.93;;
57856;SDS011;43683;48.650;9.290;2023-08-24T05:00:43;12.07;;;8.50;;
57856;SDS011;43683;48.650;9.290;2023-08-24T05:03:09;14.27;;;9.38;;
57856;SDS011;43683;48.650;9.290;2023-08-24T05:05:35;13.23;;;8.93;;
57856;SDS011;43683;48.650;9.290;2023-08-24T05:08:02;13.37;;;9.03;;
57856;SDS011;43683;48.650;9.290;2023-08-24T05:10:31;11.27;;;8.23;;
57856;SDS011;43683;48.650;9.290;2023-08-24T05:12:58;11.75;;;8.48;;
57856;SDS011;43683;48.650;9.290;2023-08-24T05:15:23;12.15;;;8.82;;
57856;SDS011;43683;48.650;9.290;2023-08-24T05:17:49;11.95;;;8.75;;
57856;SDS011;43683;48.650;9.290;2023-08-24T05:20:17;11.90;;;8.23;;
57856;SDS011;43683;48.650;9.290;2023-08-24T05:22:43;10.77;;;8.48;;
57856;SDS011;43683;48.650;9.290;2023-08-24T05:25:09;11.35;;;8.02;;
57856;SDS011;43683;48.650;9.290;2023-08-24T05:27:34;13.63;;;8.25;;
57856;SDS011;43683;48.650;9.290;2023-08-24T05:30:00;12.52;;;8.25;;
57856;SDS011;43683;48.650;9.290;2023-08-24T05:32:25;14.05;;;8.45;;
57856;SDS011;43683;48.650;9.290;2023-08-24T05:34:51;12.35;;;8.05;;
57856;SDS011;43683;48.650;9.290;2023-08-24T05:37:16;11.43;;;8.73;;
57856;SDS011;43683;48.650;9.290;2023-08-24T05:39:42;11.32;;;7.90;;
57856;SDS011;43683;48.650;9.290;2023-08-24T05:42:08;12.88;;;8.15;;
57856;SDS011;43683;48.650;9.290;2023-08-24T05:44:34;10.73;;;7.67;;
57856;SDS011;43683;48.650;9.290;2023-08-24T05:47:00;11.27;;;8.15;;
57856;SDS011;43683;48.650;9.290;2023-08-24T05:49:25;10.55;;;7.45;;
57856;SDS011;43683;48.650;9.290;2023-08-24T05:51:51;13.77;;;8.30;;
57856;SDS011;43683;48.650;9.290;2023-08-24T05:54:17;11.35;;;7.45;;
57856;SDS011;43683;48.650;9.290;2023-08-24T05:56:43;11.47;;;8.30;;
57856;SDS011;43683;48.650;9.290;2023-08-24T05:59:10;12.10;;;8.20;;
57856;SDS011;43683;48.650;9.290;2023-08-24T06:01:35;14.73;;;8.73;;
57856;SDS011;43683;48.650;9.290;2023-08-24T06:04:04;11.57;;;8.73;;
57856;SDS011;43683;48.650;9.290;2023-08-24T06:06:33;13.23;;;8.55;;
57856;SDS011;43683;48.650;9.290;2023-08-24T06:08:59;10.50;;;7.63;;
57856;SDS011;43683;48.650;9.290;2023-08-24T06:11:24;11.40;;;9.20;;
57856;SDS011;43683;48.650;9.290;2023-08-24T06:13:50;12.15;;;9.80;;
57856;SDS011;43683;48.650;9.290;2023-08-24T06:16:18;11.15;;;8.35;;
57856;SDS011;43683;48.650;9.290;2023-08-24T06:18:44;9.95;;;7.95;;
57856;SDS011;43683;48.650;9.290;2023-08-24T06:21:09;10.43;;;7.50;;
57856;SDS011;43683;48.650;9.290;2023-08-24T06:23:35;10.85;;;7.57;;
57856;SDS011;43683;48.650;9.290;2023-08-24T06:26:01;9.60;;;7.68;;
57856;SDS011;43683;48.650;9.290;2023-08-24T06:28:26;11.88;;;7.55;;
57856;SDS011;43683;48.650;9.290;2023-08-24T06:30:52;12.07;;;8.50;;
57856;SDS011;43683;48.650;9.290;2023-08-24T06:33:20;11.10;;;7.55;;
57856;SDS011;43683;48.650;9.290;2023-08-24T06:35:46;11.27;;;7.70;;
57856;SDS011;43683;48.650;9.290;2023-08-24T06:38:13;10.80;;;8.15;;
57856;SDS011;43683;48.650;9.290;2023-08-24T06:40:38;15.03;;;8.13;;
57856;SDS011;43683;48.650;9.290;2023-08-24T06:43:04;10.57;;;7.78;;
57856;SDS011;43683;48.650;9.290;2023-08-24T06:45:30;14.60;;;8.60;;
57856;SDS011;43683;48.650;9.290;2023-08-24T06:47:56;14.32;;;8.10;;
57856;SDS011;43683;48.650;9.290;2023-08-24T06:50:21;12.90;;;8.15;;
57856;SDS011;43683;48.650;9.290;2023-08-24T06:52:47;12.80;;;8.02;;
57856;SDS011;43683;48.650;9.290;2023-08-24T06:55:12;11.43;;;8.20;;
57856;SDS011;43683;48.650;9.290;2023-08-24T06:57:38;10.35;;;7.97;;
57856;SDS011;43683;48.650;9.290;2023-08-24T07:00:04;11.18;;;7.13;;
57856;SDS011;43683;48.650;9.290;2023-08-24T07:02:34;11.18;;;7.35;;
57856;SDS011;43683;48.650;9.290;2023-08-24T07:05:00;10.05;;;7.43;;
57856;SDS011;43683;48.650;9.290;2023-08-24T07:07:29;15.55;;;8.25;;
57856;SDS011;43683;48.650;9.290;2023-08-24T07:09:55;12.40;;;8.55;;
57856;SDS011;43683;48.650;9.290;2023-08-24T07:12:21;14.65;;;8.38;;
57856;SDS011;43683;48.650;9.290;2023-08-24T07:14:46;10.95;;;7.22;;
57856;SDS011;43683;48.650;9.290;2023-08-24T07:17:12;12.25;;;7.05;;
57856;SDS011;43683;48.650;9.290;2023-08-24T07:19:37;14.00;;;7.75;;
57856;SDS011;43683;48.650;9.290;2023-08-24T07:22:03;11.82;;;6.97;;
57856;SDS011;43683;48.650;9.290;2023-08-24T07:24:28;10.85;;;6.93;;
57856;SDS011;43683;48.650;9.290;2023-08-24T07:26:55;9.73;;;6.33;;
57856;SDS011;43683;48.650;9.290;2023-08-24T07:29:20;9.43;;;6.47;;
57856;SDS011;43683;48.650;9.290;2023-08-24T07:31:46;8.68;;;6.28;;
57856;SDS011;43683;48.650;9.290;2023-08-24T07:34:12;9.88;;;6.07;;
57856;SDS011;43683;48.650;9.290;2023-08-24T07:36:38;9.27;;;5.75;;
57856;SDS011;43683;48.650;9.290;2023-08-24T07:39:04;12.77;;;6.35;;
57856;SDS011;43683;48.650;9.290;2023-08-24T07:41:30;10.57;;;6.93;;
57856;SDS011;43683;48.650;9.290;2023-08-24T07:43:55;11.88;;;6.38;;
57856;SDS011;43683;48.650;9.290;2023-08-24T07:46:21;9.25;;;5.75;;
57856;SDS011;43683;48.650;9.290;2023-08-24T07:48:46;9.20;;;5.15;;
57856;SDS011;43683;48.650;9.290;2023-08-24T07:51:12;8.38;;;5.85;;
57856;SDS011;43683;48.650;9.290;2023-08-24T07:53:37;9.23;;;4.90;;
57856;SDS011;43683;48.650;9.290;2023-08-24T07:56:03;10.43;;;5.68;;
57856;SDS011;43683;48.650;9.290;2023-08-24T07:58:28;9.98;;;5.50;;
57856;SDS011;43683;48.650;9.290;2023-08-24T08:00:56;10.02;;;4.97;;
57856;SDS011;43683;48.650;9.290;2023-08-24T08:03:21;9.98;;;5.35;;
57856;SDS011;43683;48.650;9.290;2023-08-24T08:05:47;9.32;;;4.88;;
57856;SDS011;43683;48.650;9.290;2023-08-24T08:08:13;11.13;;;5.47;;
57856;SDS011;43683;48.650;9.290;2023-08-24T08:10:39;9.43;;;5.30;;
57856;SDS011;43683;48.650;9.290;2023-08-24T08:13:05;12.38;;;5.30;;
57856;SDS011;43683;48.650;9.290;2023-08-24T08:15:31;12.45;;;5.40;;
57856;SDS011;43683;48.650;9.290;2023-08-24T08:17:57;7.53;;;4.72;;
57856;SDS011;43683;48.650;9.290;2023-08-24T08:20:22;7.10;;;4.18;;
57856;SDS011;43683;48.650;9.290;2023-08-24T08:22:48;9.13;;;4.90;;
57856;SDS011;43683;48.650;9.290;2023-08-24T08:25:13;6.55;;;4.40;;
57856;SDS011;43683;48.650;9.290;2023-08-24T08:27:42;7.03;;;4.25;;
57856;SDS011;43683;48.650;9.290;2023-08-24T08:30:08;10.27;;;5.00;;
57856;SDS011;43683;48.650;9.290;2023-08-24T08:32:35;6.40;;;4.10;;
57856;SDS011;43683;48.650;9.290;2023-08-24T08:35:00;6.30;;;4.40;;
57856;SDS011;43683;48.650;9.290;2023-08-24T08:37:26;8.13;;;4.17;;
57856;SDS011;43683;48.650;9.290;2023-08-24T08:39:52;8.07;;;4.28;;
57856;SDS011;43683;48.650;9.290;2023-08-24T08:42:18;8.03;;;4.53;;
57856;SDS011;43683;48.650;9.290;2023-08-24T08:44:45;7.43;;;4.30;;
57856;SDS011;43683;48.650;9.290;2023-08-24T08:47:11;5.65;;;3.97;;
57856;SDS011;43683;48.650;9.290;2023-08-24T08:52:05;9.30;;;4.50;;
57856;SDS011;43683;48.650;9.290;2023-08-24T08:54:31;8.27;;;4.05;;
57856;SDS011;43683;48.650;9.290;2023-08-24T08:59:24;8.60;;;4.65;;
57856;SDS011;43683;48.650;9.290;2023-08-24T09:01:54;5.95;;;4.10;;
57856;SDS011;43683;48.650;9.290;2023-08-24T09:04:21;6.88;;;3.85;;
57856;SDS011;43683;48.650;9.290;2023-08-24T09:06:47;6.57;;;3.78;;
57856;SDS011;43683;48.650;9.290;2023-08-24T09:09:13;5.10;;;4.23;;
57856;SDS011;43683;48.650;9.290;2023-08-24T09:11:40;6.22;;;3.75;;
57856;SDS011;43683;48.650;9.290;2023-08-24T09:14:07;5.07;;;3.60;;
57856;SDS011;43683;48.650;9.290;2023-08-24T09:16:32;7.27;;;4.03;;
57856;SDS011;43683;48.650;9.290;2023-08-24T09:21:29;6.13;;;3.80;;
57856;SDS011;43683;48.650;9.290;2023-08-24T09:23:55;9.10;;;3.93;;
57856;SDS011;43683;48.650;9.290;2023-08-24T09:26:30;5.65;;;3.72;;
57856;SDS011;43683;48.650;9.290;2023-08-24T09:31:37;6.95;;;3.90;;
57856;SDS011;43683;48.650;9.290;2023-08-24T09:34:03;6.25;;;3.88;;
57856;SDS011;43683;48.650;9.290;2023-08-24T09:36:32;5.47;;;3.42;;
57856;SDS011;43683;48.650;9.290;2023-08-24T09:38:59;7.78;;;3.83;;
57856;SDS011;43683;48.650;9.290;2023-08-24T09:41:38;5.32;;;3.85;;
57856;SDS011;43683;48.650;9.290;2023-08-24T09:44:16;5.40;;;3.60;;
57856;SDS011;43683;48.650;9.290;2023-08-24T09:46:42;5.68;;;3.63;;
57856;SDS011;43683;48.650;9.290;2023-08-24T09:49:09;4.97;;;3.97;;
57856;SDS011;43683;48.650;9.290;2023-08-24T09:51:36;6.75;;;3.78;;
57856;SDS011;43683;48.650;9.290;2023-08-24T09:54:07;6.53;;;3.90;;
57856;SDS011;43683;48.650;9.290;2023-08-24T09:56:35;7.35;;;3.88;;
57856;SDS011;43683;48.650;9.290;2023-08-24T09:59:07;6.40;;;3.80;;
57856;SDS011;43683;48.650;9.290;2023-08-24T10:01:35;6.70;;;4.07;;
57856;SDS011;43683;48.650;9.290;2023-08-24T10:04:02;7.63;;;3.92;;
57856;SDS011;43683;48.650;9.290;2023-08-24T10:06:30;5.38;;;3.50;;
57856;SDS011;43683;48.650;9.290;2023-08-24T10:09:00;6.78;;;3.53;;
57856;SDS011;43683;48.650;9.290;2023-08-24T10:11:29;5.97;;;3.67;;
57856;SDS011;43683;48.650;9.290;2023-08-24T10:16:59;8.60;;;4.57;;
57856;SDS011;43683;48.650;9.290;2023-08-24T10:19:26;5.95;;;3.83;;
57856;SDS011;43683;48.650;9.290;2023-08-24T10:21:53;6.28;;;4.30;;
57856;SDS011;43683;48.650;9.290;2023-08-24T10:24:22;7.90;;;3.70;;
57856;SDS011;43683;48.650;9.290;2023-08-24T10:26:47;6.43;;;4.30;;
57856;SDS011;43683;48.650;9.290;2023-08-24T10:29:15;9.00;;;4.53;;
57856;SDS011;43683;48.650;9.290;2023-08-24T10:31:42;8.18;;;3.78;;
57856;SDS011;43683;48.650;9.290;2023-08-24T10:36:34;9.35;;;4.70;;
57856;SDS011;43683;48.650;9.290;2023-08-24T10:39:02;7.60;;;5.10;;
57856;SDS011;43683;48.650;9.290;2023-08-24T10:41:45;8.82;;;4.15;;
57856;SDS011;43683;48.650;9.290;2023-08-24T10:44:21;7.82;;;4.40;;
57856;SDS011;43683;48.650;9.290;2023-08-24T10:47:05;6.43;;;4.10;;
57856;SDS011;43683;48.650;9.290;2023-08-24T10:49:32;7.53;;;4.22;;
57856;SDS011;43683;48.650;9.290;2023-08-24T10:51:58;7.78;;;4.72;;
57856;SDS011;43683;48.650;9.290;2023-08-24T10:54:43;8.98;;;4.45;;
57856;SDS011;43683;48.650;9.290;2023-08-24T10:57:10;6.60;;;4.38;;
57856;SDS011;43683;48.650;9.290;2023-08-24T10:59:43;8.18;;;4.57;;
57856;SDS011;43683;48.650;9.290;2023-08-24T11:02:10;7.83;;;4.10;;
57856;SDS011;43683;48.650;9.290;2023-08-24T11:07:29;6.93;;;4.10;;
57856;SDS011;43683;48.650;9.290;2023-08-24T11:09:54;8.10;;;4.30;;
57856;SDS011;43683;48.650;9.290;2023-08-24T11:12:20;6.65;;;4.68;;
57856;SDS011;43683;48.650;9.290;2023-08-24T11:14:49;7.38;;;4.60;;
57856;SDS011;43683;48.650;9.290;2023-08-24T11:17:29;8.60;;;4.70;;
57856;SDS011;43683;48.650;9.290;2023-08-24T11:19:58;7.95;;;4.85;;
57856;SDS011;43683;48.650;9.290;2023-08-24T11:22:25;7.53;;;4.65;;
57856;SDS011;43683;48.650;9.290;2023-08-24T11:24:51;6.93;;;4.22;;
57856;SDS011;43683;48.650;9.290;2023-08-24T11:27:16;6.63;;;4.53;;
57856;SDS011;43683;48.650;9.290;2023-08-24T11:29:45;8.32;;;4.18;;
57856;SDS011;43683;48.650;9.290;2023-08-24T11:32:10;6.70;;;4.17;;
57856;SDS011;43683;48.650;9.290;2023-08-24T11:34:36;5.85;;;4.10;;
57856;SDS011;43683;48.650;9.290;2023-08-24T11:37:02;7.15;;;4.47;;
57856;SDS011;43683;48.650;9.290;2023-08-24T11:39:28;7.38;;;4.78;;
57856;SDS011;43683;48.650;9.290;2023-08-24T11:44:26;7.20;;;4.32;;
57856;SDS011;43683;48.650;9.290;2023-08-24T11:49:17;9.20;;;4.40;;
57856;SDS011;43683;48.650;9.290;2023-08-24T11:51:43;7.97;;;4.05;;
57856;SDS011;43683;48.650;9.290;2023-08-24T11:54:09;8.15;;;4.65;;
57856;SDS011;43683;48.650;9.290;2023-08-24T11:56:41;6.65;;;4.15;;
57856;SDS011;43683;48.650;9.290;2023-08-24T11:59:10;7.47;;;4.53;;
57856;SDS011;43683;48.650;9.290;2023-08-24T12:01:40;8.30;;;4.25;;
57856;SDS011;43683;48.650;9.290;2023-08-24T12:04:07;8.45;;;4.22;;
57856;SDS011;43683;48.650;9.290;2023-08-24T12:06:32;7.43;;;4.20;;
57856;SDS011;43683;48.650;9.290;2023-08-24T12:08:58;7.60;;;4.07;;
57856;SDS011;43683;48.650;9.290;2023-08-24T12:11:23;7.70;;;4.47;;
57856;SDS011;43683;48.650;9.290;2023-08-24T12:13:52;7.22;;;3.92;;
57856;SDS011;43683;48.650;9.290;2023-08-24T12:16:22;10.52;;;4.13;;
57856;SDS011;43683;48.650;9.290;2023-08-24T12:18:52;7.35;;;4.38;;
57856;SDS011;43683;48.650;9.290;2023-08-24T12:21:19;8.43;;;4.30;;
57856;SDS011;43683;48.650;9.290;2023-08-24T12:23:55;7.18;;;4.03;;
57856;SDS011;43683;48.650;9.290;2023-08-24T12:26:21;8.80;;;3.88;;
57856;SDS011;43683;48.650;9.290;2023-08-24T12:28:50;7.18;;;4.18;;
57856;SDS011;43683;48.650;9.290;2023-08-24T12:31:19;7.80;;;4.00;;
57856;SDS011;43683;48.650;9.290;2023-08-24T12:33:45;7.82;;;3.67;;
57856;SDS011;43683;48.650;9.290;2023-08-24T12:36:22;8.30;;;4.28;;
57856;SDS011;43683;48.650;9.290;2023-08-24T12:41:13;5.80;;;3.60;;
57856;SDS011;43683;48.650;9.290;2023-08-24T12:46:03;9.25;;;3.83;;
57856;SDS011;43683;48.650;9.290;2023-08-24T12:50:54;7.20;;;4.00;;
57856;SDS011;43683;48.650;9.290;2023-08-24T12:55:45;7.15;;;3.90;;
57856;SDS011;43683;48.650;9.290;2023-08-24T13:00:36;7.00;;;4.10;;
57856;SDS011;43683;48.650;9.290;2023-08-24T13:05:27;8.82;;;3.75;;
57856;SDS011;43683;48.650;9.290;2023-08-24T13:10:19;11.55;;;4.30;;
57856;SDS011;43683;48.650;9.290;2023-08-24T13:12:45;8.05;;;3.80;;
57856;SDS011;43683;48.650;9.290;2023-08-24T13:17:36;6.00;;;3.55;;
57856;SDS011;43683;48.650;9.290;2023-08-24T13:20:02;9.18;;;3.70;;
57856;SDS011;43683;48.650;9.290;2023-08-24T13:24:54;5.68;;;3.50;;
57856;SDS011;43683;48.650;9.290;2023-08-24T13:29:45;7.65;;;3.40;;
57856;SDS011;43683;48.650;9.290;2023-08-24T13:34:36;6.50;;;3.40;;
57856;SDS011;43683;48.650;9.290;2023-08-24T13:39:27;8.32;;;3.50;;
57856;SDS011;43683;48.650;9.290;2023-08-24T13:41:54;12.82;;;4.63;;
57856;SDS011;43683;48.650;9.290;2023-08-24T13:44:22;6.93;;;4.35;;
57856;SDS011;43683;48.650;9.290;2023-08-24T13:46:48;9.05;;;3.88;;
57856;SDS011;43683;48.650;9.290;2023-08-24T13:51:39;10.25;;;3.80;;
57856;SDS011;43683;48.650;9.290;2023-08-24T13:56:40;9.65;;;4.05;;
57856;SDS011;43683;48.650;9.290;2023-08-24T14:01:32;11.07;;;3.63;;
57856;SDS011;43683;48.650;9.290;2023-08-24T14:03:58;11.38;;;3.47;;
57856;SDS011;43683;48.650;9.290;2023-08-24T14:06:24;7.82;;;3.25;;
57856;SDS011;43683;48.650;9.290;2023-08-24T14:08:49;12.15;;;4.20;;
57856;SDS011;43683;48.650;9.290;2023-08-24T14:11:15;8.43;;;3.30;;
57856;SDS011;43683;48.650;9.290;2023-08-24T14:13:41;7.75;;;3.38;;
57856;SDS011;43683;48.650;9.290;2023-08-24T14:16:07;8.98;;;3.63;;
57856;SDS011;43683;48.650;9.290;2023-08-24T14:18:32;10.23;;;3.70;;
57856;SDS011;43683;48.650;9.290;2023-08-24T14:21:01;11.88;;;4.03;;
57856;SDS011;43683;48.650;9.290;2023-08-24T14:23:27;9.00;;;3.70;;
57856;SDS011;43683;48.650;9.290;2023-08-24T14:25:52;8.48;;;3.65;;
57856;SDS011;43683;48.650;9.290;2023-08-24T14:28:19;6.65;;;3.40;;
57856;SDS011;43683;48.650;9.290;2023-08-24T14:30:46;7.35;;;3.15;;
57856;SDS011;43683;48.650;9.290;2023-08-24T14:35:38;8.75;;;3.97;;
57856;SDS011;43683;48.650;9.290;2023-08-24T14:38:03;9.43;;;3.97;;
57856;SDS011;43683;48.650;9.290;2023-08-24T14:40:29;7.37;;;3.77;;
57856;SDS011;43683;48.650;9.290;2023-08-24T14:42:55;10.63;;;4.20;;
57856;SDS011;43683;48.650;9.290;2023-08-24T14:45:21;10.17;;;3.93;;
57856;SDS011;43683;48.650;9.290;2023-08-24T14:47:47;9.32;;;4.03;;
57856;SDS011;43683;48.650;9.290;2023-08-24T14:50:12;9.87;;;3.93;;
57856;SDS011;43683;48.650;9.290;2023-08-24T14:52:38;10.53;;;3.63;;
57856;SDS011;43683;48.650;9.290;2023-08-24T14:55:04;8.40;;;4.35;;
57856;SDS011;43683;48.650;9.290;2023-08-24T14:57:32;9.25;;;4.20;;
57856;SDS011;43683;48.650;9.290;2023-08-24T14:59:57;10.20;;;4.40;;
57856;SDS011;43683;48.650;9.290;2023-08-24T15:02:23;10.37;;;3.90;;
57856;SDS011;43683;48.650;9.290;2023-08-24T15:04:48;10.93;;;4.17;;
57856;SDS011;43683;48.650;9.290;2023-08-24T15:07:14;10.73;;;3.93;;
57856;SDS011;43683;48.650;9.290;2023-08-24T15:09:39;10.33;;;4.50;;
57856;SDS011;43683;48.650;9.290;2023-08-24T15:12:05;9.07;;;4.50;;
57856;SDS011;43683;48.650;9.290;2023-08-24T15:14:30;7.77;;;3.67;;
57856;SDS011;43683;48.650;9.290;2023-08-24T15:16:59;11.40;;;3.90;;
57856;SDS011;43683;48.650;9.290;2023-08-24T15:19:24;6.83;;;3.70;;
57856;SDS011;43683;48.650;9.290;2023-08-24T15:21:51;10.32;;;4.20;;
57856;SDS011;43683;48.650;9.290;2023-08-24T15:24:17;9.23;;;4.70;;
57856;SDS011;43683;48.650;9.290;2023-08-24T15:26:42;10.87;;;5.17;;
57856;SDS011;43683;48.650;9.290;2023-08-24T15:29:12;11.70;;;4.50;;
57856;SDS011;43683;48.650;9.290;2023-08-24T15:31:42;6.20;;;3.58;;
57856;SDS011;43683;48.650;9.290;2023-08-24T15:34:09;8.27;;;3.33;;
57856;SDS011;43683;48.650;9.290;2023-08-24T15:36:35;5.28;;;2.78;;
57856;SDS011;43683;48.650;9.290;2023-08-24T15:39:01;5.27;;;2.77;;
57856;SDS011;43683;48.650;9.290;2023-08-24T15:41:28;9.05;;;3.20;;
57856;SDS011;43683;48.650;9.290;2023-08-24T15:43:54;7.05;;;2.60;;
57856;SDS011;43683;48.650;9.290;2023-08-24T15:46:19;6.77;;;2.63;;
57856;SDS011;43683;48.650;9.290;2023-08-24T15:48:45;5.83;;;2.83;;
57856;SDS011;43683;48.650;9.290;2023-08-24T15:51:12;4.70;;;2.58;;